sensor_id;sensor_type;location;lat;lon;timestamp;P1;durP1;ratioP1;P2;durP2;ratioP2
52978;SDS011;63430;53.186;6.598;2024-03-02T00:01:54;4.43;;;3.58;;
52978;SDS011;63430;53.186;6.598;2024-03-02T00:07:01;5.50;;;3.28;;
52978;SDS011;63430;53.186;6.598;2024-03-02T00:12:05;6.40;;;3.60;;
52978;SDS011;63430;53.186;6.598;2024-03-02T00:17:11;5.13;;;3.47;;
52978;SDS011;63430;53.186;6.598;2024-03-02T00:22:31;5.35;;;4.40;;
52978;SDS011;63430;53.186;6.598;2024-03-02T00:27:37;6.28;;;4.30;;
52978;SDS011;63430;53.186;6.598;2024-03-02T00:32:42;6.20;;;4.00;;
52978;SDS011;63430;53.186;6.598;2024-03-02T00:37:48;4.97;;;3.88;;
52978;SDS011;63430;53.186;6.598;2024-03-02T00:42:52;5.72;;;4.07;;
52978;SDS011;63430;53.186;6.598;2024-03-02T00:47:55;5.93;;;4.07;;
52978;SDS011;63430;53.186;6.598;2024-03-02T00:53:01;4.47;;;3.97;;
52978;SDS011;63430;53.186;6.598;2024-03-02T00:58:04;4.68;;;3.83;;
52978;SDS011;63430;53.186;6.598;2024-03-02T01:03:07;5.78;;;4.00;;
52978;SDS011;63430;53.186;6.598;2024-03-02T01:08:13;6.82;;;4.63;;
52978;SDS011;63430;53.186;6.598;2024-03-02T01:13:16;4.80;;;4.22;;
52978;SDS011;63430;53.186;6.598;2024-03-02T01:18:19;5.38;;;4.55;;
52978;SDS011;63430;53.186;6.598;2024-03-02T01:23:25;5.57;;;4.43;;
52978;SDS011;63430;53.186;6.598;2024-03-02T01:28:30;6.68;;;4.10;;
52978;SDS011;63430;53.186;6.598;2024-03-02T01:33:33;5.40;;;4.32;;
52978;SDS011;63430;53.186;6.598;2024-03-02T01:38:38;5.05;;;4.05;;
52978;SDS011;63430;53.186;6.598;2024-03-02T01:43:43;5.05;;;4.35;;
52978;SDS011;63430;53.186;6.598;2024-03-02T01:48:47;5.70;;;4.47;;
52978;SDS011;63430;53.186;6.598;2024-03-02T01:53:53;6.65;;;4.55;;
52978;SDS011;63430;53.186;6.598;2024-03-02T01:58:57;5.55;;;4.50;;
52978;SDS011;63430;53.186;6.598;2024-03-02T02:04:01;7.35;;;4.68;;
52978;SDS011;63430;53.186;6.598;2024-03-02T02:09:07;5.57;;;4.43;;
52978;SDS011;63430;53.186;6.598;2024-03-02T02:14:11;7.20;;;5.03;;
52978;SDS011;63430;53.186;6.598;2024-03-02T02:19:14;5.07;;;4.40;;
52978;SDS011;63430;53.186;6.598;2024-03-02T02:24:21;5.10;;;4.05;;
52978;SDS011;63430;53.186;6.598;2024-03-02T02:29:25;6.18;;;4.55;;
52978;SDS011;63430;53.186;6.598;2024-03-02T02:34:29;5.18;;;4.22;;
52978;SDS011;63430;53.186;6.598;2024-03-02T02:39:36;4.90;;;4.32;;
52978;SDS011;63430;53.186;6.598;2024-03-02T02:44:39;4.97;;;4.15;;
52978;SDS011;63430;53.186;6.598;2024-03-02T02:49:43;6.07;;;4.20;;
52978;SDS011;63430;53.186;6.598;2024-03-02T02:54:49;4.60;;;3.88;;
52978;SDS011;63430;53.186;6.598;2024-03-02T02:59:52;5.40;;;3.53;;
52978;SDS011;63430;53.186;6.598;2024-03-02T03:04:56;4.70;;;3.60;;
52978;SDS011;63430;53.186;6.598;2024-03-02T03:10:03;3.85;;;3.20;;
52978;SDS011;63430;53.186;6.598;2024-03-02T03:15:09;4.50;;;3.17;;
52978;SDS011;63430;53.186;6.598;2024-03-02T03:20:14;5.88;;;2.97;;
52978;SDS011;63430;53.186;6.598;2024-03-02T03:25:21;3.50;;;2.70;;
52978;SDS011;63430;53.186;6.598;2024-03-02T03:30:26;4.10;;;2.70;;
52978;SDS011;63430;53.186;6.598;2024-03-02T03:35:29;6.90;;;2.85;;
52978;SDS011;63430;53.186;6.598;2024-03-02T03:40:36;3.70;;;2.80;;
52978;SDS011;63430;53.186;6.598;2024-03-02T03:45:40;3.63;;;2.65;;
52978;SDS011;63430;53.186;6.598;2024-03-02T03:50:45;3.30;;;2.95;;
52978;SDS011;63430;53.186;6.598;2024-03-02T03:55:51;4.45;;;3.15;;
52978;SDS011;63430;53.186;6.598;2024-03-02T04:00:56;4.40;;;2.70;;
52978;SDS011;63430;53.186;6.598;2024-03-02T04:05:59;4.53;;;3.10;;
52978;SDS011;63430;53.186;6.598;2024-03-02T04:11:05;4.50;;;2.90;;
52978;SDS011;63430;53.186;6.598;2024-03-02T04:16:10;4.00;;;2.80;;
52978;SDS011;63430;53.186;6.598;2024-03-02T04:21:15;3.55;;;2.70;;
52978;SDS011;63430;53.186;6.598;2024-03-02T04:26:21;3.95;;;2.80;;
52978;SDS011;63430;53.186;6.598;2024-03-02T04:31:26;3.53;;;2.93;;
52978;SDS011;63430;53.186;6.598;2024-03-02T04:36:30;3.72;;;2.90;;
52978;SDS011;63430;53.186;6.598;2024-03-02T04:41:36;4.22;;;2.95;;
52978;SDS011;63430;53.186;6.598;2024-03-02T04:46:39;3.08;;;2.78;;
52978;SDS011;63430;53.186;6.598;2024-03-02T04:51:43;3.05;;;2.50;;
52978;SDS011;63430;53.186;6.598;2024-03-02T04:56:49;3.92;;;2.85;;
52978;SDS011;63430;53.186;6.598;2024-03-02T05:02:13;6.18;;;2.72;;
52978;SDS011;63430;53.186;6.598;2024-03-02T05:07:15;5.28;;;2.97;;
52978;SDS011;63430;53.186;6.598;2024-03-02T05:12:21;3.58;;;2.80;;
52978;SDS011;63430;53.186;6.598;2024-03-02T05:17:42;4.25;;;2.55;;
52978;SDS011;63430;53.186;6.598;2024-03-02T05:22:45;4.18;;;2.70;;
52978;SDS011;63430;53.186;6.598;2024-03-02T05:27:51;3.88;;;2.65;;
52978;SDS011;63430;53.186;6.598;2024-03-02T05:32:54;5.55;;;3.22;;
52978;SDS011;63430;53.186;6.598;2024-03-02T05:37:56;3.95;;;3.00;;
52978;SDS011;63430;53.186;6.598;2024-03-02T05:43:01;4.20;;;2.70;;
52978;SDS011;63430;53.186;6.598;2024-03-02T05:48:05;3.70;;;3.10;;
52978;SDS011;63430;53.186;6.598;2024-03-02T05:53:09;4.28;;;2.90;;
52978;SDS011;63430;53.186;6.598;2024-03-02T05:58:14;4.75;;;3.20;;
52978;SDS011;63430;53.186;6.598;2024-03-02T06:03:34;3.53;;;2.85;;
52978;SDS011;63430;53.186;6.598;2024-03-02T06:08:36;3.03;;;2.72;;
52978;SDS011;63430;53.186;6.598;2024-03-02T06:13:42;4.22;;;3.40;;
52978;SDS011;63430;53.186;6.598;2024-03-02T06:18:44;4.10;;;3.03;;
52978;SDS011;63430;53.186;6.598;2024-03-02T06:23:47;4.30;;;3.20;;
52978;SDS011;63430;53.186;6.598;2024-03-02T06:28:52;4.43;;;3.28;;
52978;SDS011;63430;53.186;6.598;2024-03-02T06:33:55;4.35;;;3.08;;
52978;SDS011;63430;53.186;6.598;2024-03-02T06:38:57;5.10;;;3.25;;
52978;SDS011;63430;53.186;6.598;2024-03-02T06:44:03;4.95;;;3.30;;
52978;SDS011;63430;53.186;6.598;2024-03-02T06:49:05;3.30;;;2.78;;
52978;SDS011;63430;53.186;6.598;2024-03-02T06:54:08;3.83;;;2.80;;
52978;SDS011;63430;53.186;6.598;2024-03-02T06:59:13;4.00;;;2.90;;
52978;SDS011;63430;53.186;6.598;2024-03-02T07:04:18;4.85;;;2.88;;
52978;SDS011;63430;53.186;6.598;2024-03-02T07:09:20;4.80;;;2.80;;
52978;SDS011;63430;53.186;6.598;2024-03-02T07:14:27;3.92;;;2.92;;
52978;SDS011;63430;53.186;6.598;2024-03-02T07:19:50;6.40;;;4.05;;
52978;SDS011;63430;53.186;6.598;2024-03-02T07:24:52;3.63;;;2.90;;
52978;SDS011;63430;53.186;6.598;2024-03-02T07:29:57;7.78;;;3.45;;
52978;SDS011;63430;53.186;6.598;2024-03-02T07:35:00;4.40;;;3.50;;
52978;SDS011;63430;53.186;6.598;2024-03-02T07:40:03;3.38;;;3.08;;
52978;SDS011;63430;53.186;6.598;2024-03-02T07:45:09;4.65;;;3.35;;
52978;SDS011;63430;53.186;6.598;2024-03-02T07:50:12;3.70;;;3.22;;
52978;SDS011;63430;53.186;6.598;2024-03-02T07:55:14;4.38;;;2.85;;
52978;SDS011;63430;53.186;6.598;2024-03-02T08:00:21;3.60;;;2.65;;
52978;SDS011;63430;53.186;6.598;2024-03-02T08:05:26;3.65;;;2.67;;
52978;SDS011;63430;53.186;6.598;2024-03-02T08:10:29;5.45;;;2.60;;
52978;SDS011;63430;53.186;6.598;2024-03-02T08:15:34;3.83;;;2.53;;
52978;SDS011;63430;53.186;6.598;2024-03-02T08:20:37;2.35;;;2.10;;
52978;SDS011;63430;53.186;6.598;2024-03-02T08:25:40;5.82;;;2.10;;
52978;SDS011;63430;53.186;6.598;2024-03-02T08:30:46;3.15;;;1.90;;
52978;SDS011;63430;53.186;6.598;2024-03-02T08:35:51;1.85;;;1.65;;
52978;SDS011;63430;53.186;6.598;2024-03-02T08:40:53;4.78;;;1.80;;
52978;SDS011;63430;53.186;6.598;2024-03-02T08:45:59;2.83;;;1.55;;
52978;SDS011;63430;53.186;6.598;2024-03-02T08:51:01;4.60;;;2.10;;
52978;SDS011;63430;53.186;6.598;2024-03-02T08:56:06;2.10;;;1.67;;
52978;SDS011;63430;53.186;6.598;2024-03-02T09:01:31;2.20;;;1.58;;
52978;SDS011;63430;53.186;6.598;2024-03-02T09:06:37;2.58;;;1.50;;
52978;SDS011;63430;53.186;6.598;2024-03-02T09:11:40;2.58;;;1.27;;
52978;SDS011;63430;53.186;6.598;2024-03-02T09:17:05;2.72;;;1.27;;
52978;SDS011;63430;53.186;6.598;2024-03-02T09:22:08;1.20;;;1.10;;
52978;SDS011;63430;53.186;6.598;2024-03-02T09:27:11;2.75;;;1.30;;
52978;SDS011;63430;53.186;6.598;2024-03-02T09:32:37;3.50;;;1.00;;
52978;SDS011;63430;53.186;6.598;2024-03-02T09:37:40;1.27;;;1.10;;
52978;SDS011;63430;53.186;6.598;2024-03-02T09:42:42;1.85;;;1.00;;
52978;SDS011;63430;53.186;6.598;2024-03-02T09:47:55;1.40;;;0.88;;
52978;SDS011;63430;53.186;6.598;2024-03-02T09:52:59;4.50;;;1.45;;
52978;SDS011;63430;53.186;6.598;2024-03-02T09:58:02;1.38;;;0.77;;
52978;SDS011;63430;53.186;6.598;2024-03-02T10:03:27;2.80;;;1.10;;
52978;SDS011;63430;53.186;6.598;2024-03-02T10:08:42;1.52;;;1.00;;
52978;SDS011;63430;53.186;6.598;2024-03-02T10:13:46;2.20;;;0.88;;
52978;SDS011;63430;53.186;6.598;2024-03-02T10:19:21;1.63;;;0.80;;
52978;SDS011;63430;53.186;6.598;2024-03-02T10:24:45;1.88;;;0.93;;
52978;SDS011;63430;53.186;6.598;2024-03-02T10:29:49;2.10;;;1.25;;
52978;SDS011;63430;53.186;6.598;2024-03-02T10:35:17;1.30;;;0.90;;
52978;SDS011;63430;53.186;6.598;2024-03-02T10:46:33;2.78;;;1.10;;
52978;SDS011;63430;53.186;6.598;2024-03-02T10:51:39;2.00;;;0.90;;
52978;SDS011;63430;53.186;6.598;2024-03-02T10:57:04;1.90;;;1.00;;
52978;SDS011;63430;53.186;6.598;2024-03-02T11:02:29;2.28;;;1.05;;
52978;SDS011;63430;53.186;6.598;2024-03-02T11:07:35;3.90;;;1.10;;
52978;SDS011;63430;53.186;6.598;2024-03-02T11:12:43;2.08;;;1.30;;
52978;SDS011;63430;53.186;6.598;2024-03-02T11:18:14;2.55;;;1.10;;
52978;SDS011;63430;53.186;6.598;2024-03-02T11:23:21;2.25;;;0.95;;
52978;SDS011;63430;53.186;6.598;2024-03-02T11:28:54;1.17;;;1.08;;
52978;SDS011;63430;53.186;6.598;2024-03-02T11:34:00;2.35;;;0.95;;
52978;SDS011;63430;53.186;6.598;2024-03-02T11:39:43;2.53;;;1.20;;
52978;SDS011;63430;53.186;6.598;2024-03-02T11:45:07;3.58;;;1.45;;
52978;SDS011;63430;53.186;6.598;2024-03-02T11:50:28;3.47;;;1.08;;
52978;SDS011;63430;53.186;6.598;2024-03-02T11:55:53;1.95;;;0.93;;
52978;SDS011;63430;53.186;6.598;2024-03-02T12:00:57;3.63;;;0.90;;
52978;SDS011;63430;53.186;6.598;2024-03-02T12:06:03;2.97;;;1.20;;
52978;SDS011;63430;53.186;6.598;2024-03-02T12:11:12;1.67;;;0.88;;
52978;SDS011;63430;53.186;6.598;2024-03-02T12:16:22;2.03;;;0.80;;
52978;SDS011;63430;53.186;6.598;2024-03-02T12:21:25;3.57;;;1.40;;
52978;SDS011;63430;53.186;6.598;2024-03-02T12:26:51;2.70;;;1.50;;
52978;SDS011;63430;53.186;6.598;2024-03-02T12:31:54;1.70;;;1.13;;
52978;SDS011;63430;53.186;6.598;2024-03-02T12:36:58;1.38;;;1.20;;
52978;SDS011;63430;53.186;6.598;2024-03-02T12:42:24;2.35;;;1.40;;
52978;SDS011;63430;53.186;6.598;2024-03-02T12:47:27;2.95;;;1.80;;
52978;SDS011;63430;53.186;6.598;2024-03-02T12:52:30;2.83;;;1.83;;
52978;SDS011;63430;53.186;6.598;2024-03-02T12:57:56;8.10;;;1.95;;
52978;SDS011;63430;53.186;6.598;2024-03-02T13:03:02;2.55;;;1.50;;
52978;SDS011;63430;53.186;6.598;2024-03-02T13:08:05;4.18;;;1.80;;
52978;SDS011;63430;53.186;6.598;2024-03-02T13:13:24;2.88;;;1.83;;
52978;SDS011;63430;53.186;6.598;2024-03-02T13:18:29;2.80;;;2.08;;
52978;SDS011;63430;53.186;6.598;2024-03-02T13:23:35;3.95;;;2.60;;
52978;SDS011;63430;53.186;6.598;2024-03-02T13:28:41;5.80;;;3.65;;
52978;SDS011;63430;53.186;6.598;2024-03-02T13:34:03;4.30;;;3.88;;
52978;SDS011;63430;53.186;6.598;2024-03-02T13:39:06;4.35;;;3.63;;
52978;SDS011;63430;53.186;6.598;2024-03-02T13:44:34;4.53;;;3.97;;
52978;SDS011;63430;53.186;6.598;2024-03-02T13:49:58;4.20;;;3.80;;
52978;SDS011;63430;53.186;6.598;2024-03-02T13:55:00;3.75;;;3.38;;
52978;SDS011;63430;53.186;6.598;2024-03-02T14:00:08;4.15;;;3.35;;
52978;SDS011;63430;53.186;6.598;2024-03-02T14:05:14;3.85;;;3.53;;
52978;SDS011;63430;53.186;6.598;2024-03-02T14:10:37;4.53;;;3.50;;
52978;SDS011;63430;53.186;6.598;2024-03-02T14:15:42;4.78;;;2.80;;
52978;SDS011;63430;53.186;6.598;2024-03-02T14:21:05;3.03;;;2.50;;
52978;SDS011;63430;53.186;6.598;2024-03-02T14:26:09;3.65;;;2.13;;
52978;SDS011;63430;53.186;6.598;2024-03-02T14:31:34;4.28;;;1.90;;
52978;SDS011;63430;53.186;6.598;2024-03-02T14:36:37;5.80;;;2.03;;
52978;SDS011;63430;53.186;6.598;2024-03-02T14:42:00;2.70;;;1.33;;
52978;SDS011;63430;53.186;6.598;2024-03-02T14:47:28;1.92;;;1.25;;
52978;SDS011;63430;53.186;6.598;2024-03-02T14:52:33;4.53;;;1.40;;
52978;SDS011;63430;53.186;6.598;2024-03-02T14:57:38;3.05;;;1.73;;
52978;SDS011;63430;53.186;6.598;2024-03-02T15:03:07;3.90;;;1.98;;
52978;SDS011;63430;53.186;6.598;2024-03-02T15:13:14;2.85;;;2.00;;
52978;SDS011;63430;53.186;6.598;2024-03-02T15:18:39;2.72;;;2.20;;
52978;SDS011;63430;53.186;6.598;2024-03-02T15:23:42;4.18;;;2.30;;
52978;SDS011;63430;53.186;6.598;2024-03-02T15:28:52;3.42;;;2.33;;
52978;SDS011;63430;53.186;6.598;2024-03-02T15:39:12;3.03;;;2.20;;
52978;SDS011;63430;53.186;6.598;2024-03-02T15:44:16;5.75;;;2.67;;
52978;SDS011;63430;53.186;6.598;2024-03-02T15:49:41;3.78;;;2.33;;
52978;SDS011;63430;53.186;6.598;2024-03-02T15:54:44;3.03;;;2.50;;
52978;SDS011;63430;53.186;6.598;2024-03-02T16:00:19;4.55;;;2.88;;
52978;SDS011;63430;53.186;6.598;2024-03-02T16:05:44;3.88;;;2.72;;
52978;SDS011;63430;53.186;6.598;2024-03-02T16:10:47;4.05;;;2.97;;
52978;SDS011;63430;53.186;6.598;2024-03-02T16:15:49;6.05;;;3.30;;
52978;SDS011;63430;53.186;6.598;2024-03-02T16:21:15;4.78;;;4.38;;
52978;SDS011;63430;53.186;6.598;2024-03-02T16:26:18;5.47;;;4.75;;
52978;SDS011;63430;53.186;6.598;2024-03-02T16:31:21;6.07;;;4.88;;
52978;SDS011;63430;53.186;6.598;2024-03-02T16:36:35;6.40;;;3.80;;
52978;SDS011;63430;53.186;6.598;2024-03-02T16:42:00;4.75;;;3.58;;
52978;SDS011;63430;53.186;6.598;2024-03-02T16:47:04;4.72;;;3.70;;
52978;SDS011;63430;53.186;6.598;2024-03-02T16:52:30;4.72;;;3.78;;
52978;SDS011;63430;53.186;6.598;2024-03-02T16:57:53;11.68;;;4.70;;
52978;SDS011;63430;53.186;6.598;2024-03-02T17:02:55;4.70;;;4.30;;
52978;SDS011;63430;53.186;6.598;2024-03-02T17:08:21;5.07;;;4.15;;
52978;SDS011;63430;53.186;6.598;2024-03-02T17:13:23;6.07;;;4.00;;
52978;SDS011;63430;53.186;6.598;2024-03-02T17:18:26;5.72;;;4.80;;
52978;SDS011;63430;53.186;6.598;2024-03-02T17:23:57;8.25;;;5.32;;
52978;SDS011;63430;53.186;6.598;2024-03-02T17:29:00;6.80;;;5.03;;
52978;SDS011;63430;53.186;6.598;2024-03-02T17:34:03;6.10;;;5.20;;
52978;SDS011;63430;53.186;6.598;2024-03-02T17:39:28;7.30;;;5.40;;
52978;SDS011;63430;53.186;6.598;2024-03-02T17:44:31;6.63;;;5.00;;
52978;SDS011;63430;53.186;6.598;2024-03-02T17:49:34;6.38;;;4.93;;
52978;SDS011;63430;53.186;6.598;2024-03-02T17:54:59;5.68;;;4.80;;
52978;SDS011;63430;53.186;6.598;2024-03-02T18:00:02;5.82;;;5.03;;
52978;SDS011;63430;53.186;6.598;2024-03-02T18:05:12;6.10;;;5.05;;
52978;SDS011;63430;53.186;6.598;2024-03-02T18:10:17;5.55;;;4.97;;
52978;SDS011;63430;53.186;6.598;2024-03-02T18:15:40;7.63;;;5.72;;
52978;SDS011;63430;53.186;6.598;2024-03-02T18:20:43;6.78;;;5.40;;
52978;SDS011;63430;53.186;6.598;2024-03-02T18:25:49;6.95;;;5.65;;
52978;SDS011;63430;53.186;6.598;2024-03-02T18:30:52;7.75;;;5.13;;
52978;SDS011;63430;53.186;6.598;2024-03-02T18:36:17;9.40;;;6.40;;
52978;SDS011;63430;53.186;6.598;2024-03-02T18:41:22;14.02;;;9.07;;
52978;SDS011;63430;53.186;6.598;2024-03-02T18:46:24;9.02;;;6.82;;
52978;SDS011;63430;53.186;6.598;2024-03-02T18:51:27;8.10;;;5.95;;
52978;SDS011;63430;53.186;6.598;2024-03-02T18:56:53;10.02;;;7.55;;
52978;SDS011;63430;53.186;6.598;2024-03-02T19:02:16;11.48;;;6.63;;
52978;SDS011;63430;53.186;6.598;2024-03-02T19:07:39;10.93;;;7.68;;
52978;SDS011;63430;53.186;6.598;2024-03-02T19:12:45;11.13;;;8.48;;
52978;SDS011;63430;53.186;6.598;2024-03-02T19:18:09;7.68;;;6.30;;
52978;SDS011;63430;53.186;6.598;2024-03-02T19:23:12;9.25;;;6.78;;
52978;SDS011;63430;53.186;6.598;2024-03-02T19:28:48;7.18;;;5.85;;
52978;SDS011;63430;53.186;6.598;2024-03-02T19:33:51;6.70;;;5.60;;
52978;SDS011;63430;53.186;6.598;2024-03-02T19:38:54;7.18;;;5.80;;
52978;SDS011;63430;53.186;6.598;2024-03-02T19:43:59;18.65;;;11.77;;
52978;SDS011;63430;53.186;6.598;2024-03-02T19:49:25;19.00;;;12.57;;
52978;SDS011;63430;53.186;6.598;2024-03-02T19:54:31;9.15;;;6.82;;
52978;SDS011;63430;53.186;6.598;2024-03-02T19:59:37;7.60;;;6.55;;
52978;SDS011;63430;53.186;6.598;2024-03-02T20:05:00;10.02;;;8.05;;
52978;SDS011;63430;53.186;6.598;2024-03-02T20:10:03;9.65;;;7.20;;
52978;SDS011;63430;53.186;6.598;2024-03-02T20:15:11;8.50;;;6.95;;
52978;SDS011;63430;53.186;6.598;2024-03-02T20:20:23;8.57;;;6.50;;
52978;SDS011;63430;53.186;6.598;2024-03-02T20:25:25;7.95;;;6.00;;
52978;SDS011;63430;53.186;6.598;2024-03-02T20:30:31;8.10;;;7.30;;
52978;SDS011;63430;53.186;6.598;2024-03-02T20:35:33;7.03;;;6.05;;
52978;SDS011;63430;53.186;6.598;2024-03-02T20:40:44;7.65;;;6.15;;
52978;SDS011;63430;53.186;6.598;2024-03-02T20:46:12;7.25;;;5.85;;
52978;SDS011;63430;53.186;6.598;2024-03-02T20:51:15;7.70;;;6.30;;
52978;SDS011;63430;53.186;6.598;2024-03-02T20:56:18;8.13;;;5.95;;
52978;SDS011;63430;53.186;6.598;2024-03-02T21:01:46;6.22;;;5.60;;
52978;SDS011;63430;53.186;6.598;2024-03-02T21:06:48;6.32;;;5.72;;
52978;SDS011;63430;53.186;6.598;2024-03-02T21:11:51;6.35;;;5.65;;
52978;SDS011;63430;53.186;6.598;2024-03-02T21:16:57;6.32;;;5.28;;
52978;SDS011;63430;53.186;6.598;2024-03-02T21:22:19;6.47;;;5.47;;
52978;SDS011;63430;53.186;6.598;2024-03-02T21:27:23;7.13;;;5.10;;
52978;SDS011;63430;53.186;6.598;2024-03-02T21:32:28;5.32;;;4.65;;
52978;SDS011;63430;53.186;6.598;2024-03-02T21:37:34;7.07;;;4.85;;
52978;SDS011;63430;53.186;6.598;2024-03-02T21:42:56;6.50;;;5.00;;
52978;SDS011;63430;53.186;6.598;2024-03-02T21:53:10;5.05;;;4.55;;
52978;SDS011;63430;53.186;6.598;2024-03-02T21:58:17;5.30;;;4.43;;
52978;SDS011;63430;53.186;6.598;2024-03-02T22:03:42;5.78;;;4.60;;
52978;SDS011;63430;53.186;6.598;2024-03-02T22:08:47;5.20;;;4.70;;
52978;SDS011;63430;53.186;6.598;2024-03-02T22:13:55;4.82;;;4.07;;
52978;SDS011;63430;53.186;6.598;2024-03-02T22:19:00;6.18;;;5.10;;
52978;SDS011;63430;53.186;6.598;2024-03-02T22:24:23;7.05;;;5.07;;
52978;SDS011;63430;53.186;6.598;2024-03-02T22:29:27;5.00;;;4.50;;
52978;SDS011;63430;53.186;6.598;2024-03-02T22:34:32;7.05;;;5.82;;
52978;SDS011;63430;53.186;6.598;2024-03-02T22:39:35;7.57;;;4.90;;
52978;SDS011;63430;53.186;6.598;2024-03-02T22:44:57;6.50;;;5.22;;
52978;SDS011;63430;53.186;6.598;2024-03-02T22:50:04;7.60;;;5.90;;
52978;SDS011;63430;53.186;6.598;2024-03-02T22:55:07;6.63;;;5.50;;
52978;SDS011;63430;53.186;6.598;2024-03-02T23:00:32;8.32;;;5.95;;
52978;SDS011;63430;53.186;6.598;2024-03-02T23:05:38;7.07;;;5.68;;
52978;SDS011;63430;53.186;6.598;2024-03-02T23:10:40;7.45;;;5.90;;
52978;SDS011;63430;53.186;6.598;2024-03-02T23:15:43;7.88;;;5.95;;
52978;SDS011;63430;53.186;6.598;2024-03-02T23:21:08;6.78;;;6.07;;
52978;SDS011;63430;53.186;6.598;2024-03-02T23:26:11;7.10;;;6.13;;
52978;SDS011;63430;53.186;6.598;2024-03-02T23:31:14;8.05;;;6.30;;
52978;SDS011;63430;53.186;6.598;2024-03-02T23:36:20;8.70;;;6.40;;
52978;SDS011;63430;53.186;6.598;2024-03-02T23:41:42;7.78;;;6.88;;
52978;SDS011;63430;53.186;6.598;2024-03-02T23:46:45;8.90;;;6.75;;
52978;SDS011;63430;53.186;6.598;2024-03-02T23:51:51;10.43;;;7.03;;
52978;SDS011;63430;53.186;6.598;2024-03-02T23:56:53;10.25;;;6.85;;
